Time;durP1;ratioP1;P1;durP2;ratioP2;P2;SDS_P1;SDS_P2;PMS_P1;PMS_P2;Temp;Humidity;BMP_temperature;BMP_pressure;BME280_temperature;BME280_humidity;BME280_pressure;Samples;Min_cycle;Max_cycle;Signal;HPM_P1;HPM_P2
2023/07/09 00:01:37;;;;;;;9.73;6.63;;;;;;;;;;6212269;23;20127;-62
2023/07/09 00:04:03;;;;;;;9.50;6.80;;;;;;;;;;6212003;23;20052;-62
2023/07/09 00:06:29;;;;;;;9.32;7.05;;;;;;;;;;6211766;23;20078;-62
2023/07/09 00:08:55;;;;;;;11.57;7.18;;;;;;;;;;6212157;23;20016;-62
2023/07/09 00:11:22;;;;;;;12.05;7.75;;;;;;;;;;6212412;23;20062;-62
2023/07/09 00:13:47;;;;;;;9.88;6.68;;;;;;;;;;6211656;23;20016;-62
2023/07/09 00:16:16;;;;;;;9.70;7.13;;;;;;;;;;6212113;23;20024;-62
2023/07/09 00:18:42;;;;;;;11.45;6.57;;;;;;;;;;6212484;23;20147;-62
2023/07/09 00:21:08;;;;;;;9.05;6.82;;;;;;;;;;6211479;23;20012;-62
2023/07/09 00:23:35;;;;;;;10.70;7.38;;;;;;;;;;6211869;23;20017;-62
2023/07/09 00:26:02;;;;;;;9.35;7.40;;;;;;;;;;6211974;23;20013;-62
2023/07/09 00:28:28;;;;;;;9.63;7.35;;;;;;;;;;6211512;23;20016;-62
2023/07/09 00:30:54;;;;;;;9.88;6.65;;;;;;;;;;6212008;23;20659;-62
2023/07/09 00:33:20;;;;;;;9.70;6.90;;;;;;;;;;6211915;23;20123;-62
2023/07/09 00:35:50;;;;;;;10.38;8.10;;;;;;;;;;6184271;23;20025;-62
2023/07/09 00:38:21;;;;;;;10.35;6.72;;;;;;;;;;6211915;23;20103;-62
2023/07/09 00:40:48;;;;;;;11.98;7.40;;;;;;;;;;6212039;23;20016;-62
2023/07/09 00:43:16;;;;;;;11.80;7.22;;;;;;;;;;6210871;23;20017;-62
2023/07/09 00:45:42;;;;;;;9.20;7.10;;;;;;;;;;6211803;23;20451;-62
2023/07/09 00:48:12;;;;;;;9.05;7.38;;;;;;;;;;6211499;23;20219;-62
2023/07/09 00:50:47;;;;;;;10.98;7.07;;;;;;;;;;6211330;23;20012;-62
2023/07/09 00:53:13;;;;;;;9.15;7.43;;;;;;;;;;6211632;23;20016;-62
2023/07/09 00:55:40;;;;;;;13.15;7.18;;;;;;;;;;6211828;23;20497;-62
2023/07/09 00:58:09;;;;;;;13.25;7.10;;;;;;;;;;6211229;23;20016;-62
2023/07/09 01:00:46;;;;;;;11.32;7.07;;;;;;;;;;6211647;23;20095;-62
2023/07/09 01:03:16;;;;;;;9.52;7.03;;;;;;;;;;6211014;23;20047;-62
2023/07/09 01:05:43;;;;;;;11.88;7.28;;;;;;;;;;6211199;23;20019;-62
2023/07/09 01:08:09;;;;;;;10.77;7.10;;;;;;;;;;6211708;23;20009;-62
2023/07/09 01:10:35;;;;;;;8.60;6.78;;;;;;;;;;6211309;23;20051;-62
2023/07/09 01:13:02;;;;;;;12.18;6.80;;;;;;;;;;6210860;23;20008;-62
2023/07/09 01:15:28;;;;;;;9.98;6.75;;;;;;;;;;6211869;23;20016;-62
2023/07/09 01:17:54;;;;;;;9.65;7.03;;;;;;;;;;6211492;23;20020;-62
2023/07/09 01:20:21;;;;;;;11.63;8.00;;;;;;;;;;6211019;23;20387;-62
2023/07/09 01:22:54;;;;;;;11.02;7.18;;;;;;;;;;6210855;23;20028;-62
2023/07/09 01:25:20;;;;;;;9.52;7.38;;;;;;;;;;6211062;23;20066;-62
2023/07/09 01:27:47;;;;;;;9.93;7.18;;;;;;;;;;6210980;23;20052;-62
2023/07/09 01:30:15;;;;;;;10.48;7.22;;;;;;;;;;6211335;23;20044;-62
2023/07/09 01:32:45;;;;;;;11.70;7.28;;;;;;;;;;6211279;23;20019;-62
2023/07/09 01:35:13;;;;;;;9.23;6.50;;;;;;;;;;6210159;23;20021;-62
2023/07/09 01:37:39;;;;;;;10.45;7.57;;;;;;;;;;6211212;23;20008;-62
2023/07/09 01:40:06;;;;;;;9.48;7.20;;;;;;;;;;6211213;23;20013;-62
2023/07/09 01:42:33;;;;;;;9.52;6.88;;;;;;;;;;6210397;23;20009;-62
2023/07/09 01:44:59;;;;;;;10.10;6.70;;;;;;;;;;6210978;23;20013;-62
2023/07/09 01:47:25;;;;;;;9.38;7.10;;;;;;;;;;6211329;23;20009;-62
2023/07/09 01:49:56;;;;;;;9.60;6.88;;;;;;;;;;6210879;23;20346;-62
2023/07/09 01:52:23;;;;;;;11.10;7.10;;;;;;;;;;6211238;23;20074;-62
2023/07/09 01:54:49;;;;;;;9.40;7.15;;;;;;;;;;6211262;23;20016;-62
2023/07/09 01:57:19;;;;;;;9.00;6.97;;;;;;;;;;6210789;23;20019;-62
2023/07/09 01:59:45;;;;;;;10.00;6.47;;;;;;;;;;6211121;23;20043;-62
2023/07/09 02:02:20;;;;;;;9.88;7.18;;;;;;;;;;6210466;23;20044;-62
2023/07/09 02:04:47;;;;;;;11.82;7.28;;;;;;;;;;6210540;23;20023;-62
2023/07/09 02:07:14;;;;;;;11.52;6.95;;;;;;;;;;6210764;23;20008;-62
2023/07/09 02:09:40;;;;;;;9.10;7.00;;;;;;;;;;6211036;23;20035;-62
2023/07/09 02:12:06;;;;;;;9.55;7.35;;;;;;;;;;6210373;23;20013;-62
2023/07/09 02:14:32;;;;;;;9.20;7.00;;;;;;;;;;6211036;23;20013;-62
2023/07/09 02:16:58;;;;;;;11.93;7.07;;;;;;;;;;6210911;23;20538;-62
2023/07/09 02:19:24;;;;;;;11.27;6.90;;;;;;;;;;6210652;23;20016;-62
2023/07/09 02:21:50;;;;;;;10.55;6.93;;;;;;;;;;6211205;23;20051;-62
2023/07/09 02:24:16;;;;;;;10.40;7.10;;;;;;;;;;6210799;23;20562;-62
2023/07/09 02:26:42;;;;;;;9.63;6.97;;;;;;;;;;6210624;23;20020;-62
2023/07/09 02:29:08;;;;;;;9.43;7.00;;;;;;;;;;6211073;23;20019;-62
2023/07/09 02:31:34;;;;;;;8.57;6.88;;;;;;;;;;6210879;23;20335;-62
2023/07/09 02:34:00;;;;;;;12.20;7.72;;;;;;;;;;6210342;23;20032;-62
2023/07/09 02:36:26;;;;;;;16.45;7.28;;;;;;;;;;6210356;23;20104;-62
2023/07/09 02:38:52;;;;;;;10.80;6.97;;;;;;;;;;6210878;23;20059;-62
2023/07/09 02:41:18;;;;;;;10.35;6.85;;;;;;;;;;6210197;23;20568;-62
2023/07/09 02:43:44;;;;;;;10.02;7.50;;;;;;;;;;6210714;23;20071;-62
2023/07/09 02:46:10;;;;;;;9.27;6.75;;;;;;;;;;6210826;23;20016;-62
2023/07/09 02:48:36;;;;;;;11.43;7.40;;;;;;;;;;6210710;23;20084;-62
2023/07/09 02:51:02;;;;;;;10.52;7.28;;;;;;;;;;6210966;23;20297;-62
2023/07/09 02:53:28;;;;;;;11.15;7.85;;;;;;;;;;6210906;23;20090;-62
2023/07/09 02:55:54;;;;;;;12.07;7.25;;;;;;;;;;6210349;23;20047;-62
2023/07/09 02:58:20;;;;;;;10.75;7.10;;;;;;;;;;6210619;23;20021;-62
2023/07/09 03:00:51;;;;;;;9.95;7.65;;;;;;;;;;6210758;23;20031;-62
2023/07/09 03:03:18;;;;;;;9.02;6.68;;;;;;;;;;6209825;23;20068;-62
2023/07/09 03:05:45;;;;;;;10.52;7.43;;;;;;;;;;6210621;23;20008;-62
2023/07/09 03:08:11;;;;;;;12.18;7.88;;;;;;;;;;6210699;23;20017;-62
2023/07/09 03:10:37;;;;;;;11.15;7.75;;;;;;;;;;6210231;23;20015;-62
2023/07/09 03:13:03;;;;;;;13.02;7.60;;;;;;;;;;6210632;23;20017;-62
2023/07/09 03:15:29;;;;;;;10.07;6.80;;;;;;;;;;6210383;23;20577;-62
2023/07/09 03:17:55;;;;;;;9.55;6.78;;;;;;;;;;6210605;23;20009;-62
2023/07/09 03:20:21;;;;;;;10.15;7.05;;;;;;;;;;6210711;23;20331;-62
2023/07/09 03:22:47;;;;;;;10.45;7.30;;;;;;;;;;6210342;23;20360;-61
2023/07/09 03:25:13;;;;;;;10.85;7.00;;;;;;;;;;6210056;23;20020;-61
2023/07/09 03:27:39;;;;;;;10.70;7.57;;;;;;;;;;6210587;23;20013;-62
2023/07/09 03:30:06;;;;;;;10.82;7.72;;;;;;;;;;6210681;23;20011;-62
2023/07/09 03:32:32;;;;;;;9.18;7.10;;;;;;;;;;6209083;23;20040;-62
2023/07/09 03:34:58;;;;;;;9.52;7.28;;;;;;;;;;6209963;23;20364;-62
2023/07/09 03:37:24;;;;;;;10.15;7.85;;;;;;;;;;6210501;23;20023;-62
2023/07/09 03:39:50;;;;;;;11.85;8.80;;;;;;;;;;6209921;23;20422;-62
2023/07/09 03:42:16;;;;;;;10.27;7.50;;;;;;;;;;6210509;23;20036;-62
2023/07/09 03:44:41;;;;;;;12.63;7.95;;;;;;;;;;6210726;23;20048;-62
2023/07/09 03:47:08;;;;;;;14.52;8.13;;;;;;;;;;6212011;23;20015;-62
2023/07/09 03:49:34;;;;;;;12.18;8.25;;;;;;;;;;6212281;23;20015;-62
2023/07/09 03:52:00;;;;;;;10.88;7.50;;;;;;;;;;6212213;23;20594;-62
2023/07/09 03:54:26;;;;;;;14.77;8.45;;;;;;;;;;6211716;23;20027;-62
2023/07/09 03:56:52;;;;;;;14.20;8.82;;;;;;;;;;6212383;23;20048;-62
2023/07/09 03:59:18;;;;;;;12.07;8.43;;;;;;;;;;6212551;23;20331;-62
2023/07/09 04:01:44;;;;;;;13.05;8.63;;;;;;;;;;6211640;23;20016;-62
2023/07/09 04:04:10;;;;;;;11.15;8.18;;;;;;;;;;6211744;23;20019;-62
2023/07/09 04:06:36;;;;;;;11.13;8.50;;;;;;;;;;6212179;23;20044;-62
2023/07/09 04:09:02;;;;;;;11.10;7.88;;;;;;;;;;6212045;23;20021;-62
2023/07/09 04:11:28;;;;;;;11.55;7.82;;;;;;;;;;6211910;23;20097;-62
2023/07/09 04:13:54;;;;;;;11.10;8.13;;;;;;;;;;6212085;23;20039;-62
2023/07/09 04:16:20;;;;;;;11.70;8.70;;;;;;;;;;6211799;23;20017;-62
2023/07/09 04:18:46;;;;;;;11.95;8.35;;;;;;;;;;6211832;23;20091;-62
2023/07/09 04:21:12;;;;;;;13.23;8.50;;;;;;;;;;6211952;23;20017;-62
2023/07/09 04:23:38;;;;;;;13.68;8.60;;;;;;;;;;6211942;23;20379;-62
2023/07/09 04:26:04;;;;;;;9.93;8.20;;;;;;;;;;6211615;23;20014;-62
2023/07/09 04:28:30;;;;;;;16.35;8.68;;;;;;;;;;6212105;23;20012;-62
2023/07/09 04:30:57;;;;;;;9.88;8.10;;;;;;;;;;6212094;23;20058;-62
2023/07/09 04:33:22;;;;;;;13.38;8.95;;;;;;;;;;6211528;23;20071;-62
2023/07/09 04:35:49;;;;;;;11.05;7.80;;;;;;;;;;6211633;23;20017;-62
2023/07/09 04:38:16;;;;;;;11.13;8.45;;;;;;;;;;6211665;23;20032;-62
2023/07/09 04:40:41;;;;;;;14.25;8.80;;;;;;;;;;6211843;23;20066;-62
2023/07/09 04:43:07;;;;;;;13.20;8.98;;;;;;;;;;6211507;23;20016;-62
2023/07/09 04:45:34;;;;;;;13.52;8.93;;;;;;;;;;6211894;23;20015;-62
2023/07/09 04:48:00;;;;;;;10.85;8.27;;;;;;;;;;6211409;23;20019;-62
2023/07/09 04:50:26;;;;;;;10.80;8.30;;;;;;;;;;6211355;23;20526;-62
2023/07/09 04:52:52;;;;;;;14.70;8.93;;;;;;;;;;6211612;23;20047;-62
2023/07/09 04:55:18;;;;;;;11.23;7.93;;;;;;;;;;6211366;23;20016;-62
2023/07/09 04:57:45;;;;;;;12.73;8.65;;;;;;;;;;6211157;23;20012;-62
2023/07/09 05:00:11;;;;;;;11.70;8.07;;;;;;;;;;6210303;23;20074;-62
2023/07/09 05:02:37;;;;;;;13.32;8.23;;;;;;;;;;6210602;23;20027;-62
2023/07/09 05:05:03;;;;;;;12.23;8.15;;;;;;;;;;6211729;23;20019;-62
2023/07/09 05:07:32;;;;;;;13.63;8.02;;;;;;;;;;6211532;23;20008;-62
2023/07/09 05:09:58;;;;;;;12.93;8.07;;;;;;;;;;6211155;23;20018;-61
2023/07/09 05:12:27;;;;;;;11.75;8.82;;;;;;;;;;6211103;23;20009;-62
2023/07/09 05:14:53;;;;;;;9.95;7.68;;;;;;;;;;6211590;23;20371;-62
2023/07/09 05:17:19;;;;;;;12.98;7.53;;;;;;;;;;6210984;23;20019;-62
2023/07/09 05:19:45;;;;;;;14.35;8.30;;;;;;;;;;6211566;23;20294;-62
2023/07/09 05:22:11;;;;;;;12.30;8.15;;;;;;;;;;6211238;23;20020;-62
2023/07/09 05:24:37;;;;;;;16.38;8.52;;;;;;;;;;6210714;23;20032;-62
2023/07/09 05:27:03;;;;;;;13.10;8.63;;;;;;;;;;6211450;23;20040;-62
2023/07/09 05:29:29;;;;;;;9.75;7.90;;;;;;;;;;6211368;23;20015;-62
2023/07/09 05:31:55;;;;;;;13.93;8.27;;;;;;;;;;6211210;23;20088;-62
2023/07/09 05:34:21;;;;;;;11.63;8.10;;;;;;;;;;6211069;23;20067;-62
2023/07/09 05:36:47;;;;;;;12.23;7.80;;;;;;;;;;6211375;23;20312;-62
2023/07/09 05:39:13;;;;;;;14.63;8.82;;;;;;;;;;6210777;23;20059;-62
2023/07/09 05:41:39;;;;;;;10.60;8.30;;;;;;;;;;6211161;23;20339;-62
2023/07/09 05:44:05;;;;;;;11.18;7.70;;;;;;;;;;6211132;23;20043;-62
2023/07/09 05:46:35;;;;;;;11.75;8.65;;;;;;;;;;6209358;23;20457;-62
2023/07/09 05:49:02;;;;;;;12.57;8.40;;;;;;;;;;6211132;23;20012;-62
2023/07/09 05:51:29;;;;;;;10.30;7.88;;;;;;;;;;6211064;23;20075;-62
2023/07/09 05:53:55;;;;;;;14.27;8.80;;;;;;;;;;6210801;23;20028;-62
2023/07/09 05:56:21;;;;;;;12.40;8.60;;;;;;;;;;6211182;23;20040;-62
2023/07/09 05:58:47;;;;;;;13.10;8.90;;;;;;;;;;6211185;23;20019;-62
2023/07/09 06:01:13;;;;;;;13.38;8.38;;;;;;;;;;6210578;23;20017;-62
2023/07/09 06:03:39;;;;;;;13.02;8.82;;;;;;;;;;6210909;23;20012;-62
2023/07/09 06:06:06;;;;;;;14.02;8.43;;;;;;;;;;6211216;23;20043;-62
2023/07/09 06:08:32;;;;;;;14.98;8.70;;;;;;;;;;6210266;23;20036;-62
2023/07/09 06:11:00;;;;;;;12.93;9.18;;;;;;;;;;6210597;23;20013;-62
2023/07/09 06:13:26;;;;;;;13.73;8.65;;;;;;;;;;6210906;23;20016;-62
2023/07/09 06:15:53;;;;;;;13.32;10.23;;;;;;;;;;6210549;23;20071;-62
2023/07/09 06:18:20;;;;;;;13.73;9.65;;;;;;;;;;6211050;23;20020;-62
2023/07/09 06:20:47;;;;;;;14.65;10.60;;;;;;;;;;6211087;23;20028;-62
2023/07/09 06:23:13;;;;;;;13.10;10.27;;;;;;;;;;6210192;23;20095;-62
2023/07/09 06:25:39;;;;;;;15.13;9.68;;;;;;;;;;6210970;23;20044;-62
2023/07/09 06:28:05;;;;;;;16.10;10.93;;;;;;;;;;6211230;23;20088;-62
2023/07/09 06:30:31;;;;;;;17.40;10.45;;;;;;;;;;6210463;23;20040;-62
2023/07/09 06:32:57;;;;;;;15.38;10.75;;;;;;;;;;6210610;23;20016;-62
2023/07/09 06:35:23;;;;;;;16.50;10.98;;;;;;;;;;6210734;23;20047;-62
2023/07/09 06:37:49;;;;;;;18.65;11.77;;;;;;;;;;6210328;23;20025;-62
2023/07/09 06:40:15;;;;;;;14.90;10.20;;;;;;;;;;6210646;23;20020;-62
2023/07/09 06:42:41;;;;;;;15.13;10.60;;;;;;;;;;6210339;23;20038;-62
2023/07/09 06:45:08;;;;;;;13.32;9.50;;;;;;;;;;6210310;23;20453;-62
2023/07/09 06:47:33;;;;;;;13.30;9.57;;;;;;;;;;6210851;23;20008;-62
2023/07/09 06:49:59;;;;;;;14.00;8.85;;;;;;;;;;6210798;23;20051;-62
2023/07/09 06:52:25;;;;;;;14.38;9.43;;;;;;;;;;6210322;23;20104;-62
2023/07/09 06:54:51;;;;;;;13.18;9.40;;;;;;;;;;6210790;23;20071;-62
2023/07/09 06:57:18;;;;;;;18.42;10.25;;;;;;;;;;6211108;23;20383;-62
2023/07/09 06:59:43;;;;;;;16.38;10.50;;;;;;;;;;6210190;23;20471;-62
2023/07/09 07:02:09;;;;;;;13.70;9.48;;;;;;;;;;6210800;23;20016;-62
2023/07/09 07:04:35;;;;;;;15.30;9.45;;;;;;;;;;6210814;23;20016;-62
2023/07/09 07:07:01;;;;;;;15.55;10.75;;;;;;;;;;6209925;23;20038;-62
2023/07/09 07:09:27;;;;;;;14.70;9.45;;;;;;;;;;6210611;23;20013;-62
2023/07/09 07:11:53;;;;;;;15.20;10.18;;;;;;;;;;6210585;23;20065;-62
2023/07/09 07:14:19;;;;;;;15.50;10.32;;;;;;;;;;6210095;23;20017;-62
2023/07/09 07:16:45;;;;;;;14.77;9.95;;;;;;;;;;6210584;23;20012;-62
2023/07/09 07:19:11;;;;;;;16.98;9.60;;;;;;;;;;6210811;23;20436;-62
2023/07/09 07:21:37;;;;;;;12.80;9.48;;;;;;;;;;6212015;23;20102;-62
2023/07/09 07:24:03;;;;;;;16.90;9.38;;;;;;;;;;6212486;23;20023;-62
2023/07/09 07:26:29;;;;;;;12.80;9.10;;;;;;;;;;6212579;23;20044;-62
2023/07/09 07:28:55;;;;;;;16.77;9.57;;;;;;;;;;6212381;23;20020;-62
2023/07/09 07:31:21;;;;;;;21.58;11.25;;;;;;;;;;6212557;23;20009;-62
2023/07/09 07:33:47;;;;;;;13.25;9.65;;;;;;;;;;6212102;23;20016;-62
2023/07/09 07:36:13;;;;;;;19.77;10.40;;;;;;;;;;6211785;23;20025;-62
2023/07/09 07:38:39;;;;;;;16.52;10.55;;;;;;;;;;6212323;23;20020;-62
2023/07/09 07:41:05;;;;;;;14.25;8.63;;;;;;;;;;6211992;23;20012;-62
2023/07/09 07:43:31;;;;;;;13.68;9.60;;;;;;;;;;6212509;23;20021;-62
2023/07/09 07:45:57;;;;;;;13.70;10.40;;;;;;;;;;6212029;23;20009;-62
2023/07/09 07:48:23;;;;;;;13.13;9.25;;;;;;;;;;6212369;23;20009;-62
2023/07/09 07:50:49;;;;;;;15.43;9.05;;;;;;;;;;6212521;23;20074;-62
2023/07/09 07:53:15;;;;;;;14.15;8.63;;;;;;;;;;6211691;23;20083;-62
2023/07/09 07:55:42;;;;;;;12.38;8.18;;;;;;;;;;6211960;23;20028;-62
2023/07/09 07:58:12;;;;;;;14.15;8.60;;;;;;;;;;6212360;23;20443;-62
2023/07/09 08:00:38;;;;;;;11.02;7.68;;;;;;;;;;6211954;23;20331;-62
2023/07/09 08:03:04;;;;;;;12.88;7.18;;;;;;;;;;6211981;23;20090;-62
2023/07/09 08:05:30;;;;;;;11.55;6.72;;;;;;;;;;6212195;23;20043;-62
2023/07/09 08:07:56;;;;;;;13.10;7.13;;;;;;;;;;6211573;23;20371;-62
2023/07/09 08:10:22;;;;;;;9.75;6.95;;;;;;;;;;6212435;23;20059;-62
2023/07/09 08:12:48;;;;;;;14.45;7.90;;;;;;;;;;6212079;23;20009;-62
2023/07/09 08:15:14;;;;;;;9.77;6.95;;;;;;;;;;6211687;23;20356;-62
2023/07/09 08:17:40;;;;;;;13.52;8.20;;;;;;;;;;6212305;23;20444;-62
2023/07/09 08:20:06;;;;;;;12.85;7.40;;;;;;;;;;6212349;23;20024;-62
2023/07/09 08:22:32;;;;;;;12.88;7.32;;;;;;;;;;6211460;23;20009;-62
2023/07/09 08:24:58;;;;;;;10.95;7.40;;;;;;;;;;6212018;23;20017;-62
2023/07/09 08:27:24;;;;;;;11.88;7.00;;;;;;;;;;6211945;23;20075;-62
2023/07/09 08:29:50;;;;;;;11.02;7.22;;;;;;;;;;6211398;23;20083;-62
2023/07/09 08:32:16;;;;;;;12.85;7.50;;;;;;;;;;6211845;23;20013;-62
2023/07/09 08:34:43;;;;;;;10.23;6.63;;;;;;;;;;6211539;23;20027;-62
2023/07/09 08:37:09;;;;;;;10.20;6.85;;;;;;;;;;6211420;23;20023;-62
2023/07/09 08:39:36;;;;;;;11.80;7.18;;;;;;;;;;6211643;23;20090;-62
2023/07/09 08:42:07;;;;;;;13.23;7.53;;;;;;;;;;6211858;23;20013;-62
2023/07/09 08:44:39;;;;;;;9.85;6.65;;;;;;;;;;6211082;23;20016;-62
2023/07/09 08:47:05;;;;;;;;;;;;;;;;;;6212426;23;20023;-62
2023/07/09 08:49:37;;;;;;;12.07;7.25;;;;;;;;;;6211447;23;20287;-62
2023/07/09 08:52:07;;;;;;;12.40;7.60;;;;;;;;;;6211287;23;20015;-62
2023/07/09 08:54:35;;;;;;;14.30;7.75;;;;;;;;;;6185444;23;20328;-62
2023/07/09 08:57:07;;;;;;;11.82;7.35;;;;;;;;;;6211997;23;20017;-62
2023/07/09 08:59:34;;;;;;;10.32;6.65;;;;;;;;;;6210840;23;20014;-62
2023/07/09 09:02:03;;;;;;;12.50;6.82;;;;;;;;;;6185209;23;20580;-62
2023/07/09 09:04:31;;;;;;;11.02;6.63;;;;;;;;;;6211058;23;20013;-62
2023/07/09 09:07:16;;;;;;;8.68;5.45;;;;;;;;;;6211106;23;20339;-62
2023/07/09 09:09:45;;;;;;;9.65;6.65;;;;;;;;;;6211749;23;20031;-62
2023/07/09 09:12:20;;;;;;;10.98;6.85;;;;;;;;;;6211602;23;20020;-62
2023/07/09 09:14:57;;;;;;;11.13;6.85;;;;;;;;;;6211126;23;20032;-62
2023/07/09 09:17:26;;;;;;;8.25;6.63;;;;;;;;;;6211490;23;20154;-62
2023/07/09 09:19:56;;;;;;;10.88;6.72;;;;;;;;;;6211592;23;20331;-62
2023/07/09 09:22:23;;;;;;;11.23;6.97;;;;;;;;;;6211419;23;20070;-62
2023/07/09 09:25:08;;;;;;;13.98;7.13;;;;;;;;;;6211757;23;20415;-62
2023/07/09 09:27:34;;;;;;;11.80;7.00;;;;;;;;;;6210948;23;20016;-62
2023/07/09 09:30:00;;;;;;;14.80;6.35;;;;;;;;;;6211377;23;20369;-62
2023/07/09 09:32:31;;;;;;;11.57;7.13;;;;;;;;;;6211272;23;20012;-62
2023/07/09 09:34:57;;;;;;;9.70;7.18;;;;;;;;;;6210523;23;20391;-62
2023/07/09 09:37:32;;;;;;;14.15;6.40;;;;;;;;;;6210916;23;20020;-62
2023/07/09 09:40:02;;;;;;;12.20;7.10;;;;;;;;;;6211087;23;20462;-62
2023/07/09 09:42:28;;;;;;;11.20;7.15;;;;;;;;;;6210046;23;20017;-62
2023/07/09 09:44:55;;;;;;;11.77;6.90;;;;;;;;;;6211271;23;20530;-62
2023/07/09 09:47:23;;;;;;;11.90;6.53;;;;;;;;;;6184247;23;20320;-62
2023/07/09 09:49:49;;;;;;;12.20;7.07;;;;;;;;;;6210833;23;20031;-62
2023/07/09 09:52:17;;;;;;;11.45;7.10;;;;;;;;;;6211116;23;20009;-62
2023/07/09 09:55:04;;;;;;;9.35;6.43;;;;;;;;;;6211192;23;20383;-62
2023/07/09 09:57:30;;;;;;;12.85;6.60;;;;;;;;;;6210087;23;20020;-62
2023/07/09 09:59:56;;;;;;;15.00;7.85;;;;;;;;;;6211229;23;20082;-62
2023/07/09 10:02:24;;;;;;;8.82;6.75;;;;;;;;;;6210825;23;20008;-62
2023/07/09 10:04:50;;;;;;;12.25;6.65;;;;;;;;;;6210896;23;20017;-62
2023/07/09 10:07:22;;;;;;;10.70;6.50;;;;;;;;;;6211165;23;20013;-62
2023/07/09 10:09:51;;;;;;;11.93;6.70;;;;;;;;;;6211277;23;20091;-62
2023/07/09 10:12:23;;;;;;;13.20;7.15;;;;;;;;;;6208981;23;20359;-62
2023/07/09 10:14:49;;;;;;;10.23;6.68;;;;;;;;;;6211029;23;20466;-62
2023/07/09 10:17:18;;;;;;;13.18;7.07;;;;;;;;;;6211041;23;20023;-62
2023/07/09 10:20:03;;;;;;;9.90;6.78;;;;;;;;;;6210253;23;20481;-62
2023/07/09 10:23:02;;;;;;;9.77;6.95;;;;;;;;;;6210312;23;20123;-62
2023/07/09 10:25:44;;;;;;;12.85;6.18;;;;;;;;;;6145308;23;20020;-62
2023/07/09 10:28:29;;;;;;;10.98;6.57;;;;;;;;;;6210170;23;20027;-62
2023/07/09 10:31:00;;;;;;;12.57;6.40;;;;;;;;;;6210867;23;20159;-62
2023/07/09 10:33:35;;;;;;;8.80;6.65;;;;;;;;;;6209284;23;20492;-62
2023/07/09 10:36:12;;;;;;;10.10;6.75;;;;;;;;;;6209698;23;20031;-62
2023/07/09 10:38:48;;;;;;;10.80;6.20;;;;;;;;;;6211028;23;20325;-62
2023/07/09 10:41:15;;;;;;;12.55;6.80;;;;;;;;;;6210756;23;20012;-62
2023/07/09 10:44:01;;;;;;;9.02;6.32;;;;;;;;;;6210097;23;20066;-62
2023/07/09 10:46:28;;;;;;;10.77;6.78;;;;;;;;;;6189779;23;20020;-62
2023/07/09 10:48:56;;;;;;;13.07;7.10;;;;;;;;;;6210282;23;20087;-62
2023/07/09 10:51:26;;;;;;;11.40;6.53;;;;;;;;;;6210689;23;20013;-62
2023/07/09 10:54:12;;;;;;;9.43;6.22;;;;;;;;;;6210675;23;20021;-62
2023/07/09 10:56:39;;;;;;;7.97;5.90;;;;;;;;;;6191516;23;20035;-62
2023/07/09 10:59:05;;;;;;;8.10;5.40;;;;;;;;;;6212607;23;20027;-62
2023/07/09 11:01:49;;;;;;;11.43;6.53;;;;;;;;;;6212673;23;20013;-62
2023/07/09 11:04:25;;;;;;;9.18;5.55;;;;;;;;;;6212248;23;20051;-62
2023/07/09 11:06:53;;;;;;;10.70;5.80;;;;;;;;;;6212819;23;20385;-62
2023/07/09 11:09:31;;;;;;;10.10;5.40;;;;;;;;;;6212684;23;20439;-62
2023/07/09 11:11:59;;;;;;;8.48;5.57;;;;;;;;;;6212178;23;20443;-62
2023/07/09 11:14:32;;;;;;;9.85;5.20;;;;;;;;;;6212723;23;20339;-62
2023/07/09 11:17:00;;;;;;;9.30;6.07;;;;;;;;;;6212844;23;20019;-62
2023/07/09 11:19:26;;;;;;;12.35;6.18;;;;;;;;;;6212340;23;20020;-62
2023/07/09 11:22:24;;;;;;;13.98;6.70;;;;;;;;;;6212524;23;20015;-62
2023/07/09 11:24:52;;;;;;;12.32;6.63;;;;;;;;;;6146148;23;20021;-62
2023/07/09 11:27:25;;;;;;;9.48;5.53;;;;;;;;;;6211918;23;20016;-62
2023/07/09 11:30:01;;;;;;;9.90;5.35;;;;;;;;;;6212522;23;20031;-62
2023/07/09 11:32:28;;;;;;;9.68;5.65;;;;;;;;;;6212551;23;20051;-62
2023/07/09 11:34:55;;;;;;;10.95;5.35;;;;;;;;;;6211852;23;20016;-62
2023/07/09 11:37:25;;;;;;;6.95;5.40;;;;;;;;;;6212450;23;20472;-62
2023/07/09 11:39:51;;;;;;;7.55;5.15;;;;;;;;;;6212555;23;20438;-62
2023/07/09 11:42:24;;;;;;;10.95;6.15;;;;;;;;;;6211985;23;20020;-62
2023/07/09 11:44:52;;;;;;;7.88;5.13;;;;;;;;;;6212396;23;20102;-62
2023/07/09 11:47:18;;;;;;;8.88;5.10;;;;;;;;;;6212420;23;20009;-62
2023/07/09 11:49:53;;;;;;;7.65;5.00;;;;;;;;;;6212045;23;20332;-62
2023/07/09 11:52:22;;;;;;;8.23;5.45;;;;;;;;;;6211910;23;20024;-62
2023/07/09 11:54:51;;;;;;;7.05;4.68;;;;;;;;;;6212384;23;20268;-62
2023/07/09 11:57:17;;;;;;;12.85;4.78;;;;;;;;;;6211749;23;20028;-62
2023/07/09 11:59:43;;;;;;;8.48;5.13;;;;;;;;;;6212261;23;20016;-62
2023/07/09 12:02:31;;;;;;;6.88;4.35;;;;;;;;;;6212118;23;20024;-62
2023/07/09 12:04:57;;;;;;;8.75;4.90;;;;;;;;;;6212035;23;20024;-62
2023/07/09 12:07:25;;;;;;;6.90;4.50;;;;;;;;;;6211781;23;20019;-62
2023/07/09 12:09:51;;;;;;;6.85;5.03;;;;;;;;;;6211878;23;20013;-62
2023/07/09 12:12:22;;;;;;;8.75;5.35;;;;;;;;;;6211437;23;20012;-62
2023/07/09 12:14:48;;;;;;;8.27;5.30;;;;;;;;;;6210391;23;20020;-62
2023/07/09 12:17:14;;;;;;;7.93;5.10;;;;;;;;;;6212078;23;20270;-62
2023/07/09 12:19:40;;;;;;;6.53;4.57;;;;;;;;;;6211603;23;20021;-62
2023/07/09 12:22:10;;;;;;;5.75;4.93;;;;;;;;;;6212021;23;20020;-62
2023/07/09 12:24:42;;;;;;;7.43;4.45;;;;;;;;;;6212253;23;20013;-62
2023/07/09 12:27:29;;;;;;;8.57;4.47;;;;;;;;;;6211661;23;20016;-62
2023/07/09 12:29:57;;;;;;;9.98;4.75;;;;;;;;;;6211774;23;20078;-62
2023/07/09 12:32:26;;;;;;;7.72;4.90;;;;;;;;;;6210970;23;20016;-63
2023/07/09 12:34:52;;;;;;;7.20;4.43;;;;;;;;;;6211496;23;20084;-63
2023/07/09 12:37:20;;;;;;;7.35;4.25;;;;;;;;;;6211890;23;20020;-63
2023/07/09 12:39:47;;;;;;;10.13;4.40;;;;;;;;;;6211490;23;20364;-63
2023/07/09 12:42:18;;;;;;;7.82;4.18;;;;;;;;;;6211892;23;20016;-63
2023/07/09 12:44:46;;;;;;;7.63;4.70;;;;;;;;;;6212146;23;20013;-63
2023/07/09 12:47:13;;;;;;;7.47;4.40;;;;;;;;;;6211395;23;20264;-63
2023/07/09 12:49:41;;;;;;;4.97;4.05;;;;;;;;;;6211943;23;20019;-63
2023/07/09 12:52:14;;;;;;;9.05;4.20;;;;;;;;;;6211734;23;20451;-63
2023/07/09 12:54:40;;;;;;;7.20;4.70;;;;;;;;;;6211350;23;20016;-63
2023/07/09 12:57:14;;;;;;;5.60;4.28;;;;;;;;;;6211870;23;20439;-63
2023/07/09 12:59:40;;;;;;;7.50;4.40;;;;;;;;;;6211822;23;20386;-63
2023/07/09 13:02:16;;;;;;;9.75;4.78;;;;;;;;;;6211228;23;20466;-63
2023/07/09 13:04:42;;;;;;;6.38;4.40;;;;;;;;;;6211519;23;20031;-63
2023/07/09 13:07:26;;;;;;;7.95;4.43;;;;;;;;;;6211747;23;20009;-63
2023/07/09 13:09:54;;;;;;;7.03;4.45;;;;;;;;;;6211189;23;20020;-63
2023/07/09 13:12:41;;;;;;;6.82;4.45;;;;;;;;;;6211622;23;20013;-63
2023/07/09 13:15:19;;;;;;;6.50;4.20;;;;;;;;;;6211808;23;20024;-63
2023/07/09 13:17:45;;;;;;;6.78;4.80;;;;;;;;;;6210512;23;20309;-63
2023/07/09 13:20:11;;;;;;;9.63;5.18;;;;;;;;;;6211639;23;20021;-63
2023/07/09 13:22:37;;;;;;;6.90;4.43;;;;;;;;;;6211421;23;20165;-63
2023/07/09 13:25:04;;;;;;;10.10;4.93;;;;;;;;;;6211043;23;20024;-63
2023/07/09 13:27:30;;;;;;;8.25;4.78;;;;;;;;;;6211146;23;20078;-63
2023/07/09 13:29:56;;;;;;;6.53;4.50;;;;;;;;;;6211433;23;20083;-63
2023/07/09 13:32:23;;;;;;;9.23;4.70;;;;;;;;;;6210862;23;20021;-63
2023/07/09 13:34:49;;;;;;;6.95;4.53;;;;;;;;;;6211253;23;20138;-63
2023/07/09 13:37:16;;;;;;;7.38;4.75;;;;;;;;;;6211494;23;20506;-63
2023/07/09 13:39:42;;;;;;;8.93;4.70;;;;;;;;;;6211095;23;20503;-63
2023/07/09 13:42:16;;;;;;;8.30;4.45;;;;;;;;;;6211305;23;20320;-63
2023/07/09 13:44:43;;;;;;;6.47;4.90;;;;;;;;;;6211476;23;20383;-63
2023/07/09 13:47:16;;;;;;;6.80;5.07;;;;;;;;;;6210944;23;20335;-63
2023/07/09 13:49:42;;;;;;;5.45;4.32;;;;;;;;;;6211405;23;20015;-63
2023/07/09 13:52:10;;;;;;;6.25;4.50;;;;;;;;;;6211259;23;20009;-63
2023/07/09 13:54:37;;;;;;;10.95;5.57;;;;;;;;;;6211064;23;20025;-63
2023/07/09 13:57:03;;;;;;;7.18;4.95;;;;;;;;;;6210966;23;20023;-63
2023/07/09 13:59:30;;;;;;;9.15;5.13;;;;;;;;;;6211161;23;20063;-63
2023/07/09 14:01:57;;;;;;;10.75;5.03;;;;;;;;;;6210273;23;20016;-63
2023/07/09 14:04:24;;;;;;;10.55;4.40;;;;;;;;;;6211004;23;20432;-63
2023/07/09 14:06:50;;;;;;;6.63;4.68;;;;;;;;;;6211537;23;20031;-63
2023/07/09 14:09:16;;;;;;;6.07;4.63;;;;;;;;;;6210930;23;20475;-63
2023/07/09 14:11:46;;;;;;;8.55;4.43;;;;;;;;;;6210745;23;20070;-63
2023/07/09 14:14:24;;;;;;;9.55;4.57;;;;;;;;;;6211252;23;20352;-63
2023/07/09 14:16:50;;;;;;;7.05;4.10;;;;;;;;;;6210764;23;20020;-63
2023/07/09 14:19:18;;;;;;;6.78;4.70;;;;;;;;;;6210720;23;20024;-63
2023/07/09 14:21:44;;;;;;;8.48;4.55;;;;;;;;;;6209492;23;20020;-63
2023/07/09 14:24:21;;;;;;;8.60;4.63;;;;;;;;;;6210361;23;20019;-63
2023/07/09 14:26:51;;;;;;;5.93;4.63;;;;;;;;;;6184295;23;20067;-63
2023/07/09 14:29:18;;;;;;;6.78;4.25;;;;;;;;;;6210788;23;20042;-63
2023/07/09 14:31:44;;;;;;;6.50;4.88;;;;;;;;;;6210240;23;20012;-63
2023/07/09 14:34:31;;;;;;;5.97;4.38;;;;;;;;;;6210662;23;20016;-63
2023/07/09 14:36:57;;;;;;;7.78;4.88;;;;;;;;;;6210329;23;20024;-63
2023/07/09 14:39:24;;;;;;;7.75;4.75;;;;;;;;;;6210279;23;20016;-63